Pope, Mississippi
Current Conditions -  °F | °C
As of 11:55 AM on Monday 24 Nov 2014 (Local Time) from KUOX Reporting Station
Clear Clear  
Wind Chill: 55°   Ceiling: Unl
Heat Index: 55°   Visibility: 10mi
Dew Point: 32°   Wind: 14mph
Humidity: 41%   Direction: 300°WNW
Pressure: 29.91"   Gusts: NA
Location:  34.22°N, 89.95°W
Report Text: KUOX 241755Z AUTO 30012KT 10SM CLR 13/00 A2991 RMK AO2 PWINO PNO
Loading
Personal Weather Stations






























Interactive Weather Map New forecast layout! Learn more

10-Day Weather Forecast

Advertisements
Track Severe Weather on mobile